createdAt,value
2018-09-18T00:01:22.728Z,89.40
2018-09-18T00:03:57.065Z,88.70
2018-09-18T00:06:31.405Z,89.70
2018-09-18T00:09:07.872Z,90.10
2018-09-18T00:11:42.163Z,89.80
2018-09-18T00:14:16.565Z,90.00
2018-09-18T00:16:51.006Z,89.90
2018-09-18T00:19:25.455Z,89.90
2018-09-18T00:21:59.864Z,89.90
2018-09-18T00:24:34.321Z,89.40
2018-09-18T00:27:08.662Z,90.10
2018-09-18T00:29:43.062Z,90.10
2018-09-18T00:32:17.614Z,90.20
2018-09-18T00:34:51.955Z,90.00
2018-09-18T00:37:26.479Z,90.20
2018-09-18T00:40:00.909Z,90.30
2018-09-18T00:42:35.251Z,90.00
2018-09-18T00:45:09.694Z,90.00
2018-09-18T00:47:44.042Z,90.00
2018-09-18T00:50:18.477Z,89.60
2018-09-18T00:52:52.945Z,90.00
2018-09-18T00:55:27.427Z,89.30
2018-09-18T00:58:01.743Z,89.30
2018-09-18T01:00:36.081Z,88.80
2018-09-18T01:03:10.511Z,88.50
2018-09-18T01:05:44.978Z,88.50
2018-09-18T01:08:19.444Z,88.50
2018-09-18T01:10:53.762Z,88.30
2018-09-18T01:13:28.227Z,87.50
2018-09-18T01:16:02.528Z,88.40
2018-09-18T01:18:42.005Z,88.40
2018-09-18T01:21:16.449Z,88.40
2018-09-18T01:23:50.858Z,88.50
2018-09-18T01:26:25.358Z,88.90
2018-09-18T01:28:59.708Z,89.00
2018-09-18T01:31:34.044Z,89.30
2018-09-18T01:34:08.519Z,88.20
2018-09-18T01:36:42.778Z,88.90
2018-09-18T01:39:17.146Z,88.00
2018-09-18T01:41:51.654Z,88.50
2018-09-18T01:44:25.930Z,87.90
2018-09-18T01:47:00.299Z,88.30
2018-09-18T01:49:34.609Z,88.50
2018-09-18T01:52:09.282Z,88.70
2018-09-18T01:54:43.793Z,88.30
2018-09-18T01:57:18.178Z,87.00
2018-09-18T01:59:52.602Z,86.40
2018-09-18T02:02:27.205Z,86.90
2018-09-18T02:05:01.542Z,87.00
2018-09-18T02:07:35.902Z,87.30
2018-09-18T02:10:10.339Z,86.90
2018-09-18T02:12:44.895Z,87.10
2018-09-18T02:15:19.150Z,87.50
2018-09-18T02:17:53.720Z,87.70
2018-09-18T02:20:28.010Z,88.00
2018-09-18T02:23:02.484Z,88.30
2018-09-18T02:25:37.009Z,88.10
2018-09-18T02:28:11.272Z,87.90
2018-09-18T02:30:45.616Z,88.70
2018-09-18T02:33:19.990Z,88.60
2018-09-18T02:35:54.485Z,88.60
2018-09-18T02:38:28.869Z,88.60
2018-09-18T02:41:03.211Z,89.00
2018-09-18T02:43:37.410Z,89.30
2018-09-18T02:46:12.202Z,89.20
2018-09-18T02:48:46.718Z,89.90
2018-09-18T02:51:20.970Z,89.70
2018-09-18T02:53:55.231Z,90.10
2018-09-18T02:56:29.526Z,89.50
2018-09-18T02:59:04.078Z,89.70
2018-09-18T03:01:38.410Z,89.80
2018-09-18T03:04:12.642Z,90.00
2018-09-18T03:06:46.999Z,90.00
2018-09-18T03:09:21.240Z,90.00
2018-09-18T03:11:55.570Z,90.00
2018-09-18T03:14:29.976Z,90.10
2018-09-18T03:17:04.248Z,90.20
2018-09-18T03:19:38.871Z,90.20
2018-09-18T03:22:13.145Z,90.50
2018-09-18T03:24:47.564Z,90.30
2018-09-18T03:27:21.843Z,90.30
2018-09-18T03:29:56.191Z,90.50
2018-09-18T03:32:30.572Z,90.20
2018-09-18T03:35:04.977Z,90.50
2018-09-18T03:37:39.317Z,90.50
2018-09-18T03:40:13.687Z,90.40
2018-09-18T03:42:48.152Z,90.50
2018-09-18T03:45:22.458Z,90.60
2018-09-18T03:47:56.885Z,90.50
2018-09-18T03:50:31.354Z,90.50
2018-09-18T03:53:05.790Z,90.60
2018-09-18T03:55:40.077Z,90.80
2018-09-18T03:58:14.478Z,90.70
2018-09-18T04:00:48.888Z,90.80
2018-09-18T04:03:23.279Z,90.50
2018-09-18T04:05:57.585Z,90.90
2018-09-18T04:08:31.806Z,90.90
2018-09-18T04:11:06.246Z,90.80
2018-09-18T04:13:40.586Z,90.90
2018-09-18T04:16:15.027Z,90.90
2018-09-18T04:18:49.254Z,90.80
2018-09-18T04:21:27.658Z,91.00
2018-09-18T04:24:03.093Z,90.80
2018-09-18T04:26:38.365Z,90.70
2018-09-18T04:29:12.722Z,90.90
2018-09-18T04:31:47.305Z,90.70
2018-09-18T04:34:21.582Z,90.70
2018-09-18T04:36:55.993Z,91.00
2018-09-18T04:39:30.414Z,90.80
2018-09-18T04:42:04.809Z,90.90
2018-09-18T04:44:39.331Z,90.80
2018-09-18T04:47:13.661Z,90.90
2018-09-18T04:49:48.214Z,91.10
2018-09-18T04:52:22.361Z,90.90
2018-09-18T04:54:56.762Z,90.90
2018-09-18T04:57:31.101Z,90.90
2018-09-18T05:00:05.850Z,90.90
2018-09-18T05:02:40.329Z,90.40
2018-09-18T05:05:14.690Z,90.40
2018-09-18T05:07:48.959Z,90.20
2018-09-18T05:10:23.238Z,89.80
2018-09-18T05:12:57.610Z,89.60
2018-09-18T05:15:31.887Z,88.50
2018-09-18T05:18:06.218Z,88.60
2018-09-18T05:20:40.753Z,88.30
2018-09-18T05:23:14.986Z,88.70
2018-09-18T05:25:49.533Z,87.00
2018-09-18T05:28:23.769Z,87.10
2018-09-18T05:30:58.121Z,87.60
2018-09-18T05:33:32.509Z,87.50
2018-09-18T05:36:06.747Z,86.40
2018-09-18T05:38:41.036Z,88.00
2018-09-18T05:41:15.226Z,86.60
2018-09-18T05:43:49.471Z,86.20
2018-09-18T05:46:23.638Z,86.20
2018-09-18T05:48:58.231Z,86.10
2018-09-18T05:51:32.717Z,85.30
2018-09-18T05:54:07.070Z,85.60
2018-09-18T05:56:41.763Z,85.70
2018-09-18T05:59:16.193Z,85.20
2018-09-18T06:01:50.758Z,85.20
2018-09-18T06:04:25.118Z,85.00
2018-09-18T06:06:59.588Z,85.20
2018-09-18T06:09:33.769Z,84.80
2018-09-18T06:12:08.213Z,84.80
2018-09-18T06:14:42.555Z,84.40
2018-09-18T06:17:16.746Z,84.40
2018-09-18T06:19:51.033Z,84.70
2018-09-18T06:22:25.917Z,84.00
2018-09-18T06:25:00.266Z,83.60
2018-09-18T06:27:34.590Z,83.70
2018-09-18T06:30:09.994Z,83.80
2018-09-18T06:32:44.789Z,84.20
2018-09-18T06:35:19.094Z,83.70
2018-09-18T06:37:53.482Z,83.60
2018-09-18T06:40:28.277Z,83.30
2018-09-18T06:43:02.601Z,83.40
2018-09-18T06:45:36.724Z,83.50
2018-09-18T06:48:11.110Z,82.90
2018-09-18T06:50:45.681Z,83.00
2018-09-18T06:53:20.013Z,82.80
2018-09-18T06:55:54.374Z,82.60
2018-09-18T06:58:28.736Z,81.90
2018-09-18T07:01:02.998Z,82.30
2018-09-18T07:03:37.300Z,82.60
2018-09-18T07:06:11.680Z,81.30
2018-09-18T07:08:46.146Z,80.40
2018-09-18T07:11:20.447Z,80.00
2018-09-18T07:13:54.682Z,80.10
2018-09-18T07:16:29.467Z,79.60
2018-09-18T07:19:04.045Z,79.10
2018-09-18T07:21:38.326Z,79.00
2018-09-18T07:24:12.613Z,78.70
2018-09-18T07:26:53.627Z,78.10
2018-09-18T07:29:28.182Z,78.60
2018-09-18T07:32:02.534Z,78.00
2018-09-18T07:34:36.743Z,78.40
2018-09-18T07:37:11.026Z,78.00
2018-09-18T07:39:45.351Z,77.40
2018-09-18T07:42:19.566Z,78.90
2018-09-18T07:44:54.332Z,78.10
2018-09-18T07:47:28.670Z,76.80
2018-09-18T07:50:02.902Z,77.20
2018-09-18T07:52:37.150Z,76.20
2018-09-18T07:55:11.442Z,76.10
2018-09-18T07:57:45.691Z,75.00
2018-09-18T08:00:20.034Z,75.80
2018-09-18T08:02:54.270Z,74.20
2018-09-18T08:05:28.585Z,74.70
2018-09-18T08:08:02.887Z,74.10
2018-09-18T08:10:37.090Z,73.80
2018-09-18T08:13:11.419Z,74.50
2018-09-18T08:15:45.885Z,74.00
2018-09-18T08:18:20.084Z,72.80
2018-09-18T08:20:54.323Z,73.20
2018-09-18T08:23:28.873Z,73.80
2018-09-18T08:26:03.210Z,73.90
2018-09-18T08:28:37.734Z,73.90
2018-09-18T08:31:12.186Z,73.20
2018-09-18T08:33:46.474Z,71.80
2018-09-18T08:36:20.699Z,73.00
2018-09-18T08:38:54.988Z,71.80
2018-09-18T08:41:29.134Z,71.70
2018-09-18T08:44:03.471Z,71.10
2018-09-18T08:46:37.910Z,72.10
2018-09-18T08:49:12.102Z,70.90
2018-09-18T08:51:46.693Z,69.30
2018-09-18T08:54:20.865Z,69.80
2018-09-18T08:56:55.268Z,68.60
2018-09-18T08:59:29.450Z,68.90
2018-09-18T09:02:03.700Z,66.70
2018-09-18T09:04:37.841Z,68.20
2018-09-18T09:07:12.221Z,68.00
2018-09-18T09:09:46.555Z,66.80
2018-09-18T09:12:20.972Z,66.40
2018-09-18T09:14:55.291Z,65.80
2018-09-18T09:17:29.659Z,64.60
2018-09-18T09:20:03.973Z,65.00
2018-09-18T09:22:38.207Z,65.70
2018-09-18T09:25:12.559Z,64.20
2018-09-18T09:27:47.019Z,64.20
2018-09-18T09:30:21.405Z,65.00
2018-09-18T09:32:55.807Z,62.70
2018-09-18T09:35:30.200Z,63.20
2018-09-18T09:38:04.407Z,62.00
2018-09-18T09:40:38.898Z,61.30
2018-09-18T09:43:13.331Z,62.40
2018-09-18T09:45:47.809Z,62.90
2018-09-18T09:48:22.114Z,62.00
2018-09-18T09:50:56.606Z,61.80
2018-09-18T09:53:30.774Z,61.60
2018-09-18T09:56:04.998Z,60.00
2018-09-18T09:58:39.194Z,59.60
2018-09-18T10:01:18.774Z,61.30
2018-09-18T10:03:53.146Z,61.70
2018-09-18T10:06:27.625Z,58.90
2018-09-18T10:09:01.862Z,59.00
2018-09-18T10:11:36.163Z,58.60
2018-09-18T10:14:10.852Z,58.00
2018-09-18T10:16:45.012Z,57.50
2018-09-18T10:19:19.217Z,57.80
2018-09-18T10:21:53.614Z,57.80
2018-09-18T10:24:28.002Z,57.50
2018-09-18T10:27:02.424Z,57.40
2018-09-18T10:29:36.714Z,57.10
2018-09-18T10:32:11.147Z,56.00
2018-09-18T10:34:45.511Z,56.50
2018-09-18T10:37:19.729Z,56.50
2018-09-18T10:39:54.226Z,56.10
2018-09-18T10:42:28.659Z,54.80
2018-09-18T10:45:02.862Z,54.70
2018-09-18T10:47:37.535Z,54.20
2018-09-18T10:50:11.823Z,54.00
2018-09-18T10:52:46.175Z,52.40
2018-09-18T10:55:20.575Z,52.10
2018-09-18T10:57:54.735Z,52.40
2018-09-18T11:00:28.979Z,51.80
2018-09-18T11:03:03.260Z,51.90
2018-09-18T11:05:37.594Z,53.00
2018-09-18T11:08:12.007Z,52.00
2018-09-18T11:10:46.125Z,50.60
2018-09-18T11:13:20.496Z,50.80
2018-09-18T11:15:54.955Z,50.10
2018-09-18T11:18:29.349Z,50.30
2018-09-18T11:21:03.787Z,51.10
2018-09-18T11:23:38.092Z,50.80
2018-09-18T11:26:12.235Z,50.40
2018-09-18T11:28:46.527Z,49.20
2018-09-18T11:31:20.933Z,49.70
2018-09-18T11:33:55.430Z,48.90
2018-09-18T11:36:29.594Z,49.70
2018-09-18T11:39:04.842Z,49.30
2018-09-18T11:41:39.090Z,49.00
2018-09-18T11:44:13.274Z,48.50
2018-09-18T11:46:47.650Z,47.80
2018-09-18T11:49:22.048Z,48.10
2018-09-18T11:51:56.526Z,47.80
2018-09-18T11:54:30.726Z,47.80
2018-09-18T11:57:05.128Z,47.00
2018-09-18T11:59:39.521Z,47.50
2018-09-18T12:02:13.807Z,48.90
2018-09-18T12:04:48.083Z,48.40
2018-09-18T12:07:22.318Z,46.70
2018-09-18T12:09:56.619Z,47.00
2018-09-18T12:12:30.945Z,46.50
2018-09-18T12:15:05.280Z,46.50
2018-09-18T12:17:39.513Z,45.20
2018-09-18T12:20:13.732Z,45.70
2018-09-18T12:22:48.121Z,45.60
2018-09-18T12:25:22.388Z,45.60
2018-09-18T12:27:56.682Z,44.90
2018-09-18T12:30:30.935Z,44.40
2018-09-18T12:33:05.334Z,44.00
2018-09-18T12:35:39.732Z,44.40
2018-09-18T12:38:13.931Z,43.60
2018-09-18T12:40:48.079Z,43.30
2018-09-18T12:43:22.390Z,43.10
2018-09-18T12:45:56.557Z,42.20
2018-09-18T12:48:31.055Z,41.90
2018-09-18T12:51:05.524Z,42.30
2018-09-18T12:53:39.836Z,41.70
2018-09-18T12:56:14.194Z,42.00
2018-09-18T12:58:48.350Z,41.20
2018-09-18T13:01:22.545Z,41.30
2018-09-18T13:03:56.850Z,41.30
2018-09-18T13:06:31.407Z,41.50
2018-09-18T13:09:08.014Z,40.60
2018-09-18T13:11:42.219Z,40.10
2018-09-18T13:14:16.555Z,40.20
2018-09-18T13:16:50.871Z,39.90
2018-09-18T13:19:25.217Z,40.00
2018-09-18T13:21:59.588Z,40.50
2018-09-18T13:24:33.902Z,40.90
2018-09-18T13:27:08.277Z,41.00
2018-09-18T13:29:42.533Z,41.20
2018-09-18T13:32:16.918Z,41.30
2018-09-18T13:34:51.127Z,41.20
2018-09-18T13:37:25.375Z,41.00
2018-09-18T13:39:59.785Z,42.00
2018-09-18T13:42:34.177Z,41.00
2018-09-18T13:45:08.550Z,42.00
2018-09-18T13:47:42.878Z,43.00
2018-09-18T13:50:17.814Z,43.40
2018-09-18T13:52:52.370Z,43.70
2018-09-18T13:55:26.599Z,43.70
2018-09-18T13:58:00.998Z,43.80
2018-09-18T14:00:35.373Z,43.70
2018-09-18T14:03:09.634Z,43.50
2018-09-18T14:05:44.045Z,42.80
2018-09-18T14:08:18.466Z,42.40
2018-09-18T14:10:52.656Z,41.40
2018-09-18T14:13:26.950Z,41.30
2018-09-18T14:16:01.315Z,42.20
2018-09-18T14:18:35.578Z,41.30
2018-09-18T14:21:09.929Z,40.70
2018-09-18T14:23:44.376Z,40.50
2018-09-18T14:26:18.652Z,40.60
2018-09-18T14:28:52.929Z,40.70
2018-09-18T14:31:27.371Z,40.50
2018-09-18T14:34:01.589Z,40.20
2018-09-18T14:36:36.063Z,39.70
2018-09-18T14:39:11.227Z,39.10
2018-09-18T14:41:45.537Z,39.60
2018-09-18T14:44:19.814Z,39.60
2018-09-18T14:46:54.025Z,39.40
2018-09-18T14:49:28.441Z,39.30
2018-09-18T14:52:02.774Z,38.90
2018-09-18T14:54:37.075Z,39.50
2018-09-18T14:57:11.579Z,39.40
2018-09-18T14:59:45.944Z,38.30
2018-09-18T15:02:20.234Z,38.30
2018-09-18T15:04:54.524Z,38.60
2018-09-18T15:07:28.859Z,38.50
2018-09-18T15:10:03.185Z,38.20
2018-09-18T15:12:37.574Z,37.50
2018-09-18T15:15:11.912Z,37.40
2018-09-18T15:17:46.141Z,37.70
2018-09-18T15:20:20.496Z,37.10
2018-09-18T15:22:54.815Z,37.30
2018-09-18T15:25:29.098Z,37.00
2018-09-18T15:28:03.487Z,36.80
2018-09-18T15:30:37.798Z,36.60
2018-09-18T15:33:12.118Z,36.50
2018-09-18T15:35:46.374Z,37.20
2018-09-18T15:38:20.697Z,37.10
2018-09-18T15:40:55.170Z,36.60
2018-09-18T15:43:29.335Z,36.50
2018-09-18T15:46:03.712Z,36.10
2018-09-18T15:48:37.978Z,35.90
2018-09-18T15:51:12.338Z,35.20
2018-09-18T15:53:46.709Z,35.90
2018-09-18T15:56:21.043Z,35.50
2018-09-18T15:58:55.377Z,36.10
2018-09-18T16:01:29.689Z,35.70
2018-09-18T16:04:04.240Z,36.00
2018-09-18T16:06:38.627Z,35.80
2018-09-18T16:09:12.885Z,36.40
2018-09-18T16:11:47.225Z,36.20
2018-09-18T16:14:21.537Z,36.50
2018-09-18T16:17:00.746Z,36.80
2018-09-18T16:19:35.195Z,36.90
2018-09-18T16:22:09.616Z,37.00
2018-09-18T16:24:43.968Z,36.90
2018-09-18T16:27:18.186Z,37.60
2018-09-18T16:29:52.613Z,37.90
2018-09-18T16:32:27.106Z,38.20
2018-09-18T16:35:01.510Z,38.20
2018-09-18T16:37:36.003Z,39.00
2018-09-18T16:40:10.920Z,39.20
2018-09-18T16:42:45.112Z,39.00
2018-09-18T16:45:19.535Z,39.40
2018-09-18T16:47:53.872Z,39.50
2018-09-18T16:50:28.470Z,39.80
2018-09-18T16:53:02.747Z,40.10
2018-09-18T16:55:37.089Z,40.80
2018-09-18T16:58:12.318Z,40.70
2018-09-18T17:00:46.749Z,40.90
2018-09-18T17:03:20.995Z,40.80
2018-09-18T17:05:55.166Z,40.70
2018-09-18T17:08:29.562Z,40.20
2018-09-18T17:11:03.732Z,39.90
2018-09-18T17:13:38.095Z,40.20
2018-09-18T17:16:12.370Z,40.10
2018-09-18T17:18:46.950Z,40.10
2018-09-18T17:21:21.165Z,40.20
2018-09-18T17:23:55.459Z,40.20
2018-09-18T17:26:29.670Z,40.00
2018-09-18T17:29:04.135Z,40.30
2018-09-18T17:31:38.555Z,40.20
2018-09-18T17:34:13.046Z,40.60
2018-09-18T17:36:47.271Z,40.60
2018-09-18T17:39:21.521Z,41.50
2018-09-18T17:41:55.677Z,41.10
2018-09-18T17:44:30.143Z,41.20
2018-09-18T17:47:04.466Z,41.60
2018-09-18T17:49:38.746Z,41.70
2018-09-18T17:52:13.180Z,41.70
2018-09-18T17:54:47.491Z,41.90
2018-09-18T17:57:21.837Z,42.20
2018-09-18T17:59:56.082Z,42.20
2018-09-18T18:02:30.521Z,42.40
2018-09-18T18:05:04.788Z,42.60
2018-09-18T18:07:39.156Z,42.70
2018-09-18T18:10:13.479Z,43.10
2018-09-18T18:12:47.828Z,43.20
2018-09-18T18:15:22.129Z,43.20
2018-09-18T18:17:56.438Z,43.40
2018-09-18T18:20:30.835Z,43.70
2018-09-18T18:23:05.281Z,44.10
2018-09-18T18:25:39.523Z,44.10
2018-09-18T18:28:13.875Z,44.00
2018-09-18T18:30:48.292Z,44.20
2018-09-18T18:33:22.694Z,44.30
2018-09-18T18:35:56.991Z,44.50
2018-09-18T18:38:31.341Z,44.50
2018-09-18T18:41:05.752Z,44.90
2018-09-18T18:43:39.915Z,45.00
2018-09-18T18:46:14.217Z,45.20
2018-09-18T18:48:48.544Z,45.40
2018-09-18T18:51:22.963Z,45.20
2018-09-18T18:53:57.250Z,45.70
2018-09-18T18:56:31.517Z,45.90
2018-09-18T18:59:05.911Z,46.80
2018-09-18T19:01:40.285Z,46.50
2018-09-18T19:04:14.635Z,47.40
2018-09-18T19:06:48.930Z,46.70
2018-09-18T19:09:23.357Z,46.80
2018-09-18T19:11:57.769Z,46.90
2018-09-18T19:14:31.951Z,47.20
2018-09-18T19:17:06.244Z,47.20
2018-09-18T19:19:40.434Z,47.30
2018-09-18T19:22:14.702Z,48.30
2018-09-18T19:24:49.006Z,48.30
2018-09-18T19:27:23.400Z,48.60
2018-09-18T19:29:57.746Z,48.20
2018-09-18T19:32:32.122Z,48.20
2018-09-18T19:35:06.522Z,48.40
2018-09-18T19:37:40.753Z,48.80
2018-09-18T19:40:15.068Z,49.00
2018-09-18T19:42:49.349Z,49.40
2018-09-18T19:45:23.679Z,49.90
2018-09-18T19:47:57.831Z,50.20
2018-09-18T19:50:32.343Z,50.20
2018-09-18T19:53:06.560Z,50.60
2018-09-18T19:55:40.927Z,51.00
2018-09-18T19:58:15.218Z,51.30
2018-09-18T20:00:49.539Z,52.20
2018-09-18T20:03:24.041Z,51.80
2018-09-18T20:05:58.123Z,51.90
2018-09-18T20:08:32.393Z,52.00
2018-09-18T20:11:06.830Z,51.90
2018-09-18T20:13:41.243Z,52.20
2018-09-18T20:16:15.647Z,52.20
2018-09-18T20:18:50.010Z,52.30
2018-09-18T20:21:24.350Z,52.70
2018-09-18T20:23:58.700Z,52.50
2018-09-18T20:26:33.105Z,52.70
2018-09-18T20:29:07.812Z,52.90
2018-09-18T20:31:42.196Z,52.80
2018-09-18T20:34:16.621Z,53.00
2018-09-18T20:36:50.906Z,53.10
2018-09-18T20:39:25.287Z,53.70
2018-09-18T20:41:59.666Z,53.60
2018-09-18T20:44:33.938Z,53.90
2018-09-18T20:47:08.218Z,54.20
2018-09-18T20:49:42.509Z,54.50
2018-09-18T20:52:16.743Z,54.60
2018-09-18T20:54:51.019Z,54.80
2018-09-18T20:57:25.418Z,55.40
2018-09-18T20:59:59.650Z,55.50
2018-09-18T21:02:33.995Z,56.00
2018-09-18T21:05:08.252Z,56.60
2018-09-18T21:07:42.462Z,56.80
2018-09-18T21:10:16.782Z,56.80
2018-09-18T21:12:51.126Z,57.40
2018-09-18T21:15:25.352Z,58.90
2018-09-18T21:17:59.577Z,60.00
2018-09-18T21:20:33.875Z,60.60
2018-09-18T21:23:08.226Z,59.10
2018-09-18T21:25:57.819Z,59.20
2018-09-18T21:28:32.099Z,59.90
2018-09-18T21:31:06.439Z,59.70
2018-09-18T21:33:40.778Z,60.40
2018-09-18T21:36:15.065Z,61.10
2018-09-18T21:38:49.372Z,61.50
2018-09-18T21:41:23.674Z,62.40
2018-09-18T21:43:58.009Z,63.10
2018-09-18T21:46:32.223Z,63.40
2018-09-18T21:49:06.417Z,64.90
2018-09-18T21:51:40.779Z,64.40
2018-09-18T21:54:15.167Z,64.80
2018-09-18T21:56:49.441Z,65.90
2018-09-18T21:59:23.834Z,65.70
2018-09-18T22:01:58.116Z,67.20
2018-09-18T22:04:32.406Z,67.60
2018-09-18T22:07:06.773Z,69.30
2018-09-18T22:09:41.003Z,69.60
2018-09-18T22:12:15.273Z,70.40
2018-09-18T22:14:49.510Z,70.60
2018-09-18T22:17:23.680Z,71.60
2018-09-18T22:19:58.047Z,71.80
2018-09-18T22:22:32.370Z,72.00
2018-09-18T22:25:06.941Z,71.80
2018-09-18T22:27:41.446Z,71.30
2018-09-18T22:30:15.690Z,71.50
2018-09-18T22:32:50.150Z,72.30
2018-09-18T22:35:24.556Z,72.80
2018-09-18T22:37:58.970Z,73.50
2018-09-18T22:40:33.262Z,74.00
2018-09-18T22:43:07.683Z,74.10
2018-09-18T22:45:41.857Z,74.50
2018-09-18T22:48:16.118Z,74.60
2018-09-18T22:50:50.430Z,74.80
2018-09-18T22:53:24.755Z,75.60
2018-09-18T22:55:59.093Z,76.10
2018-09-18T22:58:33.394Z,76.80
2018-09-18T23:01:07.727Z,77.50
2018-09-18T23:03:41.929Z,77.90
2018-09-18T23:06:16.230Z,78.10
2018-09-18T23:08:50.412Z,78.60
2018-09-18T23:11:24.783Z,79.40
2018-09-18T23:13:59.068Z,79.40
2018-09-18T23:16:33.518Z,79.60
2018-09-18T23:19:07.799Z,80.30
2018-09-18T23:21:42.108Z,80.90
2018-09-18T23:24:16.335Z,81.00
2018-09-18T23:26:50.695Z,81.60
2018-09-18T23:29:24.955Z,81.70
2018-09-18T23:31:59.416Z,82.20
2018-09-18T23:34:33.775Z,82.50
2018-09-18T23:37:07.990Z,82.60
2018-09-18T23:39:42.313Z,83.20
2018-09-18T23:42:16.688Z,83.70
2018-09-18T23:44:51.117Z,83.20
2018-09-18T23:47:25.376Z,84.30
2018-09-18T23:49:59.629Z,84.70
2018-09-18T23:52:33.909Z,85.00
2018-09-18T23:55:08.206Z,84.50
2018-09-18T23:57:42.506Z,85.00
